Time;durP1;ratioP1;P1;durP2;ratioP2;P2;SDS_P1;SDS_P2;PMS_P1;PMS_P2;Temp;Humidity;BMP_temperature;BMP_pressure;BME280_temperature;BME280_humidity;BME280_pressure;Samples;Min_cycle;Max_cycle;Signal;HPM_P1;HPM_P2
2023/07/24 00:00:23;;;;;;;5.97;4.13;;;20.30;99.90;;;;;;5032759;28;20373;-83
2023/07/24 00:02:49;;;;;;;6.55;4.80;;;20.30;99.90;;;;;;5032704;28;20115;-82
2023/07/24 00:05:15;;;;;;;6.47;4.47;;;20.30;99.90;;;;;;5032744;28;20021;-80
2023/07/24 00:07:42;;;;;;;6.75;4.38;;;20.30;99.90;;;;;;5032343;28;20040;-84
2023/07/24 00:10:08;;;;;;;7.32;4.57;;;20.30;99.90;;;;;;5032634;28;20030;-75
2023/07/24 00:12:33;;;;;;;8.05;4.95;;;20.40;99.90;;;;;;5032873;28;20518;-84
2023/07/24 00:14:59;;;;;;;8.07;4.68;;;20.30;99.90;;;;;;5032718;28;20401;-73
2023/07/24 00:17:25;;;;;;;10.73;5.55;;;20.30;99.90;;;;;;5032067;28;20041;-77
2023/07/24 00:19:50;;;;;;;10.00;5.05;;;20.30;99.90;;;;;;5032746;28;20030;-80
2023/07/24 00:22:17;;;;;;;8.20;5.90;;;20.30;99.90;;;;;;5032951;28;20140;-80
2023/07/24 00:24:43;;;;;;;8.27;5.65;;;20.30;99.90;;;;;;5032478;28;20017;-81
2023/07/24 00:27:09;;;;;;;10.88;5.35;;;20.30;99.90;;;;;;5032770;28;20036;-83
2023/07/24 00:29:37;;;;;;;7.35;5.93;;;20.30;99.90;;;;;;5032661;28;20428;-81
2023/07/24 00:32:03;;;;;;;7.10;5.65;;;20.30;99.90;;;;;;5032495;28;20026;-84
2023/07/24 00:34:30;;;;;;;12.55;6.32;;;20.20;99.90;;;;;;5032145;28;20052;-80
2023/07/24 00:36:55;;;;;;;6.35;5.25;;;20.30;99.90;;;;;;5032523;28;20029;-84
2023/07/24 00:39:21;;;;;;;9.25;6.22;;;20.30;99.90;;;;;;5022973;28;20030;-84
2023/07/24 00:41:47;;;;;;;10.05;5.57;;;20.30;99.90;;;;;;5013023;28;20160;-84
2023/07/24 00:44:12;;;;;;;9.32;5.72;;;20.30;99.90;;;;;;5013034;28;20026;-80
2023/07/24 00:46:39;;;;;;;7.57;5.93;;;20.30;99.90;;;;;;5013251;28;20037;-84
2023/07/24 00:49:08;;;;;;;7.03;5.57;;;20.30;99.90;;;;;;5012345;28;20089;-85
2023/07/24 00:51:36;;;;;;;8.35;5.32;;;20.30;99.90;;;;;;5012538;28;20426;-81
2023/07/24 00:54:03;;;;;;;11.70;5.78;;;20.30;99.90;;;;;;5012814;28;20101;-83
2023/07/24 00:56:30;;;;;;;8.65;6.30;;;20.20;99.90;;;;;;5012742;28;20026;-82
2023/07/24 00:58:57;;;;;;;11.52;6.53;;;20.20;99.90;;;;;;5012927;28;20084;-84
2023/07/24 01:01:25;;;;;;;7.63;6.00;;;20.20;99.90;;;;;;5011221;28;20474;-84
2023/07/24 01:03:51;;;;;;;14.60;6.97;;;20.20;99.90;;;;;;5032023;28;20038;-84
2023/07/24 01:06:17;;;;;;;10.90;7.32;;;20.20;99.90;;;;;;5016455;28;20023;-84
2023/07/24 01:08:44;;;;;;;12.75;6.80;;;20.20;99.90;;;;;;5018381;28;20029;-83
2023/07/24 01:11:20;;;;;;;12.23;6.47;;;20.30;99.90;;;;;;5036099;28;20052;-79
2023/07/24 01:14:18;;;;;;;8.93;6.55;;;20.30;99.90;;;;;;5036905;28;20057;-75
2023/07/24 01:16:48;;;;;;;11.90;7.47;;;20.20;99.90;;;;;;5034535;28;20111;-85
2023/07/24 01:19:40;;;;;;;12.23;6.78;;;20.20;99.90;;;;;;5036212;28;20026;-79
2023/07/24 01:22:28;;;;;;;8.93;6.53;;;20.20;99.90;;;;;;5035790;28;20048;-85
2023/07/24 01:25:15;;;;;;;12.27;7.88;;;20.10;99.90;;;;;;5036002;28;20029;-83
2023/07/24 01:27:44;;;;;;;12.88;7.65;;;20.10;99.90;;;;;;5036225;28;20037;-77
2023/07/24 01:30:14;;;;;;;12.20;7.97;;;20.10;99.90;;;;;;5035659;28;20496;-84
2023/07/24 01:32:40;;;;;;;17.60;8.93;;;20.10;99.90;;;;;;5036442;28;20041;-85
2023/07/24 01:35:06;;;;;;;9.73;6.93;;;20.10;99.90;;;;;;5036506;28;20026;-79
2023/07/24 01:37:33;;;;;;;12.75;7.80;;;20.10;99.90;;;;;;5032430;28;20549;-76
2023/07/24 01:40:00;;;;;;;10.52;7.65;;;20.10;99.90;;;;;;5035462;28;20045;-73
2023/07/24 01:42:26;;;;;;;11.32;7.75;;;20.10;99.90;;;;;;5035384;28;20029;-76
2023/07/24 01:44:53;;;;;;;14.68;7.95;;;20.10;99.90;;;;;;5035358;28;20100;-77
2023/07/24 01:47:19;;;;;;;13.82;7.60;;;20.20;99.90;;;;;;5035088;28;20032;-75
2023/07/24 01:49:45;;;;;;;12.80;8.25;;;20.20;99.90;;;;;;5035305;28;20100;-76
2023/07/24 01:52:10;;;;;;;12.43;8.43;;;20.20;99.90;;;;;;5034899;28;20025;-74
2023/07/24 01:54:36;;;;;;;11.98;8.02;;;20.20;99.90;;;;;;5034563;28;20113;-73
2023/07/24 01:57:02;;;;;;;13.75;8.30;;;20.20;99.90;;;;;;5034880;28;20064;-76
2023/07/24 01:59:27;;;;;;;12.90;7.70;;;20.20;99.90;;;;;;5035223;28;20516;-77
2023/07/24 02:01:53;;;;;;;21.45;8.80;;;20.10;99.90;;;;;;5033584;28;20493;-75
2023/07/24 02:04:21;;;;;;;13.43;8.93;;;20.10;99.90;;;;;;5034952;28;20100;-80
2023/07/24 02:06:50;;;;;;;12.38;8.38;;;20.20;99.90;;;;;;5034532;28;20033;-73
2023/07/24 02:09:18;;;;;;;10.75;8.15;;;20.20;99.90;;;;;;5034053;28;20029;-76
2023/07/24 02:11:44;;;;;;;16.52;7.68;;;20.20;99.90;;;;;;5034633;28;20057;-72
2023/07/24 02:14:11;;;;;;;15.98;7.88;;;20.20;99.90;;;;;;5034623;28;20061;-77
2023/07/24 02:16:37;;;;;;;14.65;8.15;;;20.20;99.90;;;;;;5034120;28;20419;-76
2023/07/24 02:19:03;;;;;;;14.00;8.23;;;20.20;99.90;;;;;;5032842;28;20033;-76
2023/07/24 02:21:28;;;;;;;15.40;8.43;;;20.20;99.90;;;;;;5034709;28;20104;-77
2023/07/24 02:23:54;;;;;;;12.60;8.23;;;20.20;99.90;;;;;;5034534;28;20029;-77
2023/07/24 02:26:20;;;;;;;17.63;9.70;;;20.30;99.90;;;;;;5034654;28;20481;-77
2023/07/24 02:28:45;;;;;;;17.05;8.30;;;20.30;99.90;;;;;;5033858;28;20022;-77
2023/07/24 02:31:11;;;;;;;15.35;8.48;;;20.30;99.90;;;;;;5034427;28;20029;-76
2023/07/24 02:33:37;;;;;;;12.93;7.72;;;20.30;99.90;;;;;;5034098;28;20029;-76
2023/07/24 02:36:03;;;;;;;23.48;10.05;;;20.30;99.90;;;;;;5034425;28;20026;-76
2023/07/24 02:38:29;;;;;;;16.75;9.40;;;20.30;99.90;;;;;;5033334;28;20044;-78
2023/07/24 02:40:54;;;;;;;18.67;8.73;;;20.30;99.90;;;;;;5033857;28;20100;-77
2023/07/24 02:43:20;;;;;;;16.92;7.93;;;20.30;99.90;;;;;;5034136;28;20029;-78
2023/07/24 02:45:46;;;;;;;16.05;8.32;;;20.30;99.90;;;;;;5034395;28;20489;-75
2023/07/24 02:48:11;;;;;;;13.88;7.75;;;20.20;99.90;;;;;;5032965;28;20044;-75
2023/07/24 02:50:37;;;;;;;19.60;8.45;;;20.20;99.90;;;;;;5034086;28;20113;-78
2023/07/24 02:53:02;;;;;;;17.27;8.95;;;20.20;99.90;;;;;;5034053;28;20018;-77
2023/07/24 02:55:28;;;;;;;17.13;9.45;;;20.20;99.90;;;;;;5033145;28;20108;-77
2023/07/24 02:57:54;;;;;;;13.77;7.80;;;20.20;99.90;;;;;;5033791;28;20033;-76
2023/07/24 03:00:20;;;;;;;14.52;7.45;;;20.10;99.90;;;;;;5033758;28;20080;-76
2023/07/24 03:02:45;;;;;;;14.02;8.15;;;20.10;99.90;;;;;;5033425;28;20029;-76
2023/07/24 03:05:11;;;;;;;17.45;9.10;;;20.10;99.90;;;;;;5033458;28;20079;-75
2023/07/24 03:07:36;;;;;;;14.00;7.93;;;20.10;99.90;;;;;;5032994;28;20036;-76
2023/07/24 03:10:03;;;;;;;16.70;8.65;;;20.00;99.90;;;;;;5033477;28;20048;-76
2023/07/24 03:12:28;;;;;;;19.50;8.70;;;20.10;99.90;;;;;;5033749;28;20493;-75
2023/07/24 03:14:54;;;;;;;12.25;7.63;;;20.10;99.90;;;;;;5033524;28;20021;-76
2023/07/24 03:17:20;;;;;;;18.73;8.27;;;20.20;99.90;;;;;;5033228;28;20135;-77
2023/07/24 03:19:45;;;;;;;16.77;8.88;;;20.30;99.90;;;;;;5033378;28;20026;-77
2023/07/24 03:22:11;;;;;;;17.25;8.93;;;20.30;99.90;;;;;;5033657;28;20033;-76
2023/07/24 03:24:37;;;;;;;16.88;8.40;;;20.30;99.90;;;;;;5033369;28;20393;-75
2023/07/24 03:27:03;;;;;;;18.30;9.93;;;20.30;99.90;;;;;;5033543;28;20100;-75
2023/07/24 03:29:28;;;;;;;11.57;7.95;;;20.30;99.90;;;;;;5033044;28;20454;-74
2023/07/24 03:31:54;;;;;;;12.25;8.18;;;20.30;99.90;;;;;;5032981;28;20018;-76
2023/07/24 03:34:20;;;;;;;14.52;9.52;;;20.30;99.90;;;;;;5033214;28;20029;-75
2023/07/24 03:36:45;;;;;;;15.23;8.55;;;20.40;99.90;;;;;;5032869;28;20630;-76
2023/07/24 03:39:11;;;;;;;17.08;9.20;;;20.50;99.90;;;;;;5032804;28;20045;-76
2023/07/24 03:41:38;;;;;;;13.45;7.70;;;20.40;99.90;;;;;;5033431;28;20040;-76
2023/07/24 03:44:03;;;;;;;15.25;8.30;;;20.40;99.90;;;;;;5033069;28;20025;-76
2023/07/24 03:46:29;;;;;;;15.40;8.23;;;20.50;99.90;;;;;;5032945;28;20032;-75
2023/07/24 03:48:55;;;;;;;13.30;7.25;;;20.40;99.90;;;;;;5015290;28;20034;-76
2023/07/24 03:51:20;;;;;;;15.27;8.77;;;20.40;99.90;;;;;;5032832;28;20025;-71
2023/07/24 03:53:46;;;;;;;11.52;7.28;;;20.30;99.90;;;;;;5033039;28;20034;-70
2023/07/24 03:56:12;;;;;;;11.48;5.82;;;20.30;99.90;;;;;;5032936;28;20025;-74
2023/07/24 03:58:39;;;;;;;11.82;7.13;;;20.20;99.90;;;;;;5032354;28;20406;-76
2023/07/24 04:01:05;;;;;;;13.68;6.60;;;20.30;99.90;;;;;;5032253;28;20091;-76
2023/07/24 04:03:30;;;;;;;12.63;5.93;;;20.30;99.90;;;;;;5032678;28;20513;-75
2023/07/24 04:05:56;;;;;;;7.30;5.53;;;20.30;99.90;;;;;;5032295;28;20462;-68
2023/07/24 04:08:21;;;;;;;6.90;4.93;;;20.30;99.90;;;;;;5031866;28;20104;-69
2023/07/24 04:10:47;;;;;;;9.82;5.28;;;20.40;99.90;;;;;;5030555;28;20155;-68
2023/07/24 04:13:13;;;;;;;7.22;5.32;;;20.50;99.90;;;;;;5032166;28;20389;-73
2023/07/24 04:15:39;;;;;;;8.40;5.10;;;20.50;99.90;;;;;;5032317;28;20026;-67
2023/07/24 04:18:05;;;;;;;7.68;4.70;;;20.40;99.90;;;;;;5032569;28;20037;-75
2023/07/24 04:20:31;;;;;;;6.40;4.43;;;20.30;99.90;;;;;;5032364;28;20096;-79
2023/07/24 04:22:56;;;;;;;6.00;4.65;;;20.30;99.90;;;;;;5032072;28;20461;-69
2023/07/24 04:25:22;;;;;;;7.55;3.70;;;20.20;99.90;;;;;;5031706;28;20052;-71
2023/07/24 04:27:48;;;;;;;4.68;3.35;;;20.20;99.90;;;;;;5032424;28;20060;-70
2023/07/24 04:30:14;;;;;;;3.55;3.20;;;20.20;99.90;;;;;;5031960;28;20096;-74
2023/07/24 04:32:39;;;;;;;5.15;2.95;;;20.10;99.90;;;;;;5031785;28;20543;-81
2023/07/24 04:35:05;;;;;;;4.93;2.72;;;20.00;99.90;;;;;;5032368;28;20025;-78
2023/07/24 04:37:31;;;;;;;3.38;2.40;;;20.00;99.90;;;;;;5031890;28;20095;-77
2023/07/24 04:39:57;;;;;;;3.50;3.08;;;19.90;99.90;;;;;;5032331;28;20033;-77
2023/07/24 04:42:22;;;;;;;2.97;2.67;;;19.80;99.90;;;;;;5036278;28;20032;-76
2023/07/24 04:44:49;;;;;;;2.90;2.60;;;19.90;99.90;;;;;;5036374;28;20021;-72
2023/07/24 04:47:15;;;;;;;2.75;2.53;;;19.90;99.90;;;;;;5036262;28;20029;-74
2023/07/24 04:49:41;;;;;;;4.03;3.63;;;19.90;99.90;;;;;;5036296;28;20026;-73
2023/07/24 04:52:07;;;;;;;4.10;2.97;;;19.80;99.90;;;;;;5036059;28;20029;-75
2023/07/24 04:54:33;;;;;;;5.50;3.90;;;19.80;99.90;;;;;;5036447;28;20060;-74
2023/07/24 04:56:58;;;;;;;5.97;3.95;;;19.80;99.90;;;;;;5029264;28;20401;-76
2023/07/24 04:59:24;;;;;;;5.82;3.80;;;19.90;99.90;;;;;;5016506;28;20022;-77
2023/07/24 05:01:50;;;;;;;5.35;3.80;;;20.00;99.90;;;;;;5019221;28;20021;-73
2023/07/24 05:04:16;;;;;;;4.43;3.95;;;20.00;99.90;;;;;;5036095;28;20409;-77
2023/07/24 05:06:41;;;;;;;5.40;3.85;;;20.00;99.90;;;;;;5018122;28;20429;-76
2023/07/24 05:09:07;;;;;;;4.28;3.58;;;20.00;99.90;;;;;;5034714;28;20488;-78
2023/07/24 05:11:32;;;;;;;4.30;3.20;;;20.00;99.90;;;;;;5035937;28;20030;-75
2023/07/24 05:13:58;;;;;;;4.05;3.22;;;20.00;99.90;;;;;;5035451;28;20021;-69
2023/07/24 05:16:24;;;;;;;5.53;3.97;;;20.00;99.90;;;;;;5035311;28;20021;-78
2023/07/24 05:18:49;;;;;;;7.38;3.95;;;20.00;99.90;;;;;;5036027;28;20053;-72
2023/07/24 05:21:15;;;;;;;4.88;4.38;;;20.00;99.90;;;;;;5035494;28;20025;-82
2023/07/24 05:23:41;;;;;;;5.72;4.82;;;20.00;99.90;;;;;;5035723;28;20034;-72
2023/07/24 05:26:06;;;;;;;6.03;4.15;;;20.00;99.90;;;;;;5035661;28;20056;-80
2023/07/24 05:28:32;;;;;;;6.50;4.40;;;20.10;99.90;;;;;;5035520;28;20388;-72
2023/07/24 05:31:03;;;;;;;5.25;4.50;;;20.10;99.90;;;;;;5035883;28;20691;-72
2023/07/24 05:33:29;;;;;;;4.95;4.50;;;20.10;99.90;;;;;;5035485;28;20037;-74
2023/07/24 05:36:02;;;;;;;4.95;4.45;;;20.10;99.90;;;;;;5035256;28;20046;-68
2023/07/24 05:38:28;;;;;;;5.38;4.88;;;20.00;99.90;;;;;;5033909;28;20436;-75
2023/07/24 05:40:57;;;;;;;4.78;4.00;;;20.10;99.90;;;;;;5035167;28;20083;-71
2023/07/24 05:43:23;;;;;;;4.72;4.10;;;20.00;99.90;;;;;;5034932;28;20065;-77
2023/07/24 05:45:53;;;;;;;3.90;3.60;;;20.00;99.90;;;;;;5016599;28;20478;-74
2023/07/24 05:48:19;;;;;;;4.28;3.92;;;20.00;99.90;;;;;;5033905;28;20097;-79
2023/07/24 05:50:44;;;;;;;4.00;3.60;;;20.00;99.90;;;;;;5026251;28;20109;-75
2023/07/24 05:53:10;;;;;;;5.55;3.53;;;20.00;99.90;;;;;;5015094;28;20026;-87
2023/07/24 05:55:36;;;;;;;3.88;3.15;;;20.10;99.90;;;;;;5015373;28;20029;-75
2023/07/24 05:58:01;;;;;;;3.78;3.47;;;20.10;99.90;;;;;;5014795;28;20116;-80
2023/07/24 06:00:27;;;;;;;3.83;3.47;;;20.10;99.90;;;;;;5016935;28;20574;-79
2023/07/24 06:02:54;;;;;;;4.85;3.85;;;20.00;99.90;;;;;;5029084;28;20382;-74
2023/07/24 06:05:19;;;;;;;3.70;3.40;;;20.00;99.90;;;;;;5026791;28;20018;-78
2023/07/24 06:07:46;;;;;;;5.20;3.78;;;20.10;99.90;;;;;;5034328;28;20399;-79
2023/07/24 06:10:12;;;;;;;5.18;3.20;;;20.00;99.90;;;;;;5034400;28;20026;-80
2023/07/24 06:12:38;;;;;;;4.03;3.72;;;20.00;99.90;;;;;;5034413;28;20040;-72
2023/07/24 06:15:04;;;;;;;4.38;3.97;;;20.10;99.90;;;;;;5034129;28;20049;-75
2023/07/24 06:17:30;;;;;;;4.90;3.67;;;20.10;99.90;;;;;;5034279;28;20121;-72
2023/07/24 06:19:55;;;;;;;4.07;3.50;;;20.10;99.90;;;;;;5034632;28;20426;-74
2023/07/24 06:22:21;;;;;;;5.40;4.28;;;20.10;99.90;;;;;;5034418;28;20497;-72
2023/07/24 06:24:47;;;;;;;4.63;3.90;;;20.10;99.90;;;;;;5034688;28;20067;-69
2023/07/24 06:27:12;;;;;;;4.05;3.67;;;20.10;99.90;;;;;;5033120;28;20025;-74
2023/07/24 06:29:38;;;;;;;5.50;4.22;;;20.00;99.90;;;;;;5033499;28;20021;-70
2023/07/24 06:32:04;;;;;;;4.38;3.97;;;20.00;99.90;;;;;;5033948;28;20028;-67
2023/07/24 06:34:30;;;;;;;5.68;3.70;;;20.10;99.90;;;;;;5016532;28;20036;-67
2023/07/24 06:36:55;;;;;;;4.90;3.53;;;20.10;99.90;;;;;;5034124;28;20029;-68
2023/07/24 06:39:21;;;;;;;3.55;3.25;;;20.20;99.90;;;;;;5034043;28;20053;-68
2023/07/24 06:41:47;;;;;;;4.25;3.47;;;20.10;99.90;;;;;;5034018;28;20032;-68
2023/07/24 06:44:12;;;;;;;5.40;3.35;;;20.10;99.90;;;;;;5031374;28;20037;-69
2023/07/24 06:46:38;;;;;;;4.38;3.55;;;20.10;99.90;;;;;;5024082;28;20032;-73
2023/07/24 06:49:04;;;;;;;4.13;3.55;;;20.10;99.90;;;;;;5021570;28;20075;-70
2023/07/24 06:51:29;;;;;;;3.50;3.20;;;20.10;99.90;;;;;;5033852;28;20026;-78
2023/07/24 06:53:55;;;;;;;3.60;3.30;;;20.10;99.90;;;;;;5033471;28;20025;-77
2023/07/24 06:56:21;;;;;;;4.40;3.05;;;20.20;99.90;;;;;;5033141;28;20021;-69
2023/07/24 06:58:46;;;;;;;3.50;3.20;;;20.30;99.90;;;;;;5032197;28;20432;-73
2023/07/24 07:01:12;;;;;;;3.53;2.60;;;20.20;99.90;;;;;;5032600;28;20033;-70
2023/07/24 07:03:37;;;;;;;3.50;3.00;;;20.30;99.90;;;;;;5022368;28;20111;-70
2023/07/24 07:06:03;;;;;;;6.30;3.50;;;20.30;99.90;;;;;;5023193;28;20030;-72
2023/07/24 07:08:30;;;;;;;3.50;3.20;;;20.30;99.90;;;;;;5027193;28;20026;-71
2023/07/24 07:10:59;;;;;;;3.58;3.08;;;20.40;99.90;;;;;;5025918;28;20243;-71
2023/07/24 07:13:25;;;;;;;3.35;3.05;;;20.40;99.90;;;;;;5015691;28;20025;-76
2023/07/24 07:15:51;;;;;;;3.60;3.30;;;20.50;99.90;;;;;;5033421;28;20036;-72
2023/07/24 07:18:17;;;;;;;3.60;3.22;;;20.50;99.90;;;;;;5033295;28;20033;-75
2023/07/24 07:20:51;;;;;;;3.90;3.60;;;20.50;99.90;;;;;;5015835;28;20014;-75
2023/07/24 07:23:17;;;;;;;4.95;3.90;;;20.50;99.90;;;;;;5029463;28;20160;-74
2023/07/24 07:25:45;;;;;;;5.40;4.28;;;20.60;99.90;;;;;;5023238;28;20658;-72
2023/07/24 07:28:11;;;;;;;7.55;3.83;;;20.50;99.90;;;;;;5013958;28;20417;-69
2023/07/24 07:30:36;;;;;;;4.88;4.38;;;20.60;99.90;;;;;;5033014;28;20029;-77
2023/07/24 07:33:02;;;;;;;4.65;3.78;;;20.50;99.90;;;;;;5033172;28;20033;-76
2023/07/24 07:35:28;;;;;;;5.07;3.92;;;20.50;99.90;;;;;;5015242;28;20021;-70
2023/07/24 07:37:54;;;;;;;5.10;3.88;;;20.70;99.90;;;;;;5032766;28;20398;-76
2023/07/24 07:40:19;;;;;;;4.90;3.78;;;20.70;99.90;;;;;;5032510;28;20037;-74
2023/07/24 07:42:45;;;;;;;5.68;4.30;;;20.70;99.90;;;;;;5031723;28;20064;-74
2023/07/24 07:45:11;;;;;;;7.55;4.43;;;20.70;99.90;;;;;;5031270;28;20071;-70
2023/07/24 07:47:36;;;;;;;6.55;4.35;;;20.80;99.90;;;;;;5032986;28;20037;-76
2023/07/24 07:50:03;;;;;;;4.10;3.80;;;20.80;99.90;;;;;;5032587;28;20025;-75
2023/07/24 07:52:29;;;;;;;4.10;3.60;;;20.90;99.90;;;;;;5032863;28;20025;-70
2023/07/24 07:54:54;;;;;;;6.15;4.15;;;20.90;99.90;;;;;;5031239;28;20033;-75
2023/07/24 07:57:20;;;;;;;4.05;3.47;;;20.90;99.90;;;;;;5032386;28;20037;-70
2023/07/24 07:59:46;;;;;;;5.22;4.18;;;20.90;99.90;;;;;;5031592;28;20026;-70
2023/07/24 08:02:11;;;;;;;4.43;4.03;;;21.10;99.90;;;;;;5031152;28;20382;-71
2023/07/24 08:04:37;;;;;;;4.32;3.90;;;21.20;99.90;;;;;;5029449;28;20044;-69
2023/07/24 08:07:03;;;;;;;4.10;3.70;;;21.20;99.90;;;;;;5030305;28;20371;-69
2023/07/24 08:09:29;;;;;;;3.45;3.03;;;21.40;99.90;;;;;;5030081;28;20389;-71
2023/07/24 08:11:54;;;;;;;4.82;3.75;;;21.60;99.90;;;;;;5030444;28;20021;-72
2023/07/24 08:14:20;;;;;;;7.20;3.45;;;21.70;99.90;;;;;;5012056;28;20013;-72
2023/07/24 08:16:49;;;;;;;3.88;2.92;;;21.80;99.90;;;;;;5024562;28;20045;-76
2023/07/24 08:19:15;;;;;;;4.72;3.63;;;21.80;99.90;;;;;;5026879;28;20140;-69
2023/07/24 08:21:40;;;;;;;3.40;3.10;;;22.00;99.90;;;;;;5028426;28;20116;-73
2023/07/24 08:24:06;;;;;;;3.60;3.00;;;22.10;99.90;;;;;;5029946;28;20032;-70
2023/07/24 08:26:32;;;;;;;4.43;2.50;;;22.20;99.90;;;;;;5014334;28;20033;-69
2023/07/24 08:28:58;;;;;;;4.85;3.20;;;22.30;99.90;;;;;;5011870;28;20489;-74
2023/07/24 08:31:23;;;;;;;3.33;3.13;;;22.30;99.90;;;;;;5029849;28;20025;-74
2023/07/24 08:33:49;;;;;;;3.15;2.67;;;22.40;99.90;;;;;;5012644;28;20036;-74
2023/07/24 08:36:16;;;;;;;2.58;2.35;;;22.40;99.90;;;;;;5029603;28;20025;-70
2023/07/24 08:38:42;;;;;;;2.58;2.38;;;22.40;99.90;;;;;;5029862;28;20037;-75
2023/07/24 08:41:12;;;;;;;2.45;2.25;;;22.20;99.90;;;;;;5028397;28;20025;-73
2023/07/24 08:43:39;;;;;;;2.85;2.38;;;22.20;99.90;;;;;;5029188;28;20116;-74
2023/07/24 08:46:06;;;;;;;5.07;2.78;;;22.10;99.90;;;;;;5029680;28;20048;-74
2023/07/24 08:48:37;;;;;;;3.13;2.83;;;22.10;99.90;;;;;;5029407;28;20025;-73
2023/07/24 08:51:04;;;;;;;4.40;2.78;;;22.10;99.90;;;;;;5029186;28;20028;-72
2023/07/24 08:53:30;;;;;;;2.88;2.55;;;22.10;99.90;;;;;;5030034;28;20080;-70
2023/07/24 08:55:57;;;;;;;4.28;2.78;;;22.10;99.90;;;;;;5029928;28;20474;-73
2023/07/24 08:58:23;;;;;;;2.70;2.50;;;22.10;99.90;;;;;;5030038;28;20092;-73
2023/07/24 09:00:48;;;;;;;3.67;2.60;;;22.10;99.90;;;;;;5030108;28;20030;-73
2023/07/24 09:03:14;;;;;;;3.75;3.17;;;22.20;99.90;;;;;;5029942;28;20032;-72
2023/07/24 09:05:40;;;;;;;3.17;2.50;;;22.30;99.90;;;;;;5011209;28;20032;-72
2023/07/24 09:08:05;;;;;;;2.83;2.63;;;22.50;99.90;;;;;;5029524;28;20113;-72
2023/07/24 09:10:31;;;;;;;3.55;2.65;;;22.70;99.90;;;;;;5030458;28;20105;-73
2023/07/24 09:12:57;;;;;;;3.05;2.40;;;22.60;99.90;;;;;;5030411;28;20030;-72
2023/07/24 09:15:23;;;;;;;5.38;2.97;;;22.50;99.90;;;;;;5028676;28;20048;-72
2023/07/24 09:17:52;;;;;;;5.30;3.20;;;22.70;99.90;;;;;;5030213;28;20034;-72
2023/07/24 09:20:19;;;;;;;5.60;3.35;;;22.70;99.90;;;;;;5012968;28;20068;-72
2023/07/24 09:22:54;;;;;;;3.88;2.67;;;22.60;99.90;;;;;;5030499;28;20109;-72
2023/07/24 09:25:34;;;;;;;2.97;2.70;;;22.60;99.90;;;;;;5029766;28;20028;-72
2023/07/24 09:28:00;;;;;;;3.45;3.13;;;22.60;99.90;;;;;;5032578;28;20075;-73
2023/07/24 09:30:25;;;;;;;6.18;3.97;;;22.70;99.90;;;;;;5035148;28;20018;-71
2023/07/24 09:32:54;;;;;;;2.80;2.60;;;23.00;99.90;;;;;;5034177;28;20029;-72
2023/07/24 09:35:26;;;;;;;4.88;2.75;;;23.20;99.90;;;;;;5034653;28;20488;-71
2023/07/24 09:38:02;;;;;;;5.47;3.05;;;23.50;99.90;;;;;;5035082;28;20037;-72
2023/07/24 09:40:28;;;;;;;3.05;2.72;;;23.70;99.90;;;;;;5035492;28;20056;-72
2023/07/24 09:42:54;;;;;;;5.75;3.40;;;23.60;99.90;;;;;;5034682;28;20068;-72
2023/07/24 09:45:19;;;;;;;3.28;2.97;;;23.40;99.90;;;;;;5035322;28;20033;-73
2023/07/24 09:47:46;;;;;;;4.55;3.10;;;23.20;99.90;;;;;;5035006;28;20029;-73
2023/07/24 09:50:12;;;;;;;4.32;3.42;;;23.00;99.90;;;;;;5034910;28;20021;-72
2023/07/24 09:52:41;;;;;;;2.95;2.72;;;22.80;99.90;;;;;;5035167;28;20345;-71
2023/07/24 09:55:29;;;;;;;3.85;3.30;;;22.60;99.90;;;;;;5035196;28;20045;-72
2023/07/24 09:57:55;;;;;;;5.13;3.50;;;22.60;99.90;;;;;;5034125;28;20120;-73
2023/07/24 10:00:21;;;;;;;3.70;3.35;;;22.50;99.90;;;;;;5032762;28;20509;-73
2023/07/24 10:02:48;;;;;;;3.90;3.50;;;22.40;99.90;;;;;;5033876;28;20049;-71
2023/07/24 10:05:14;;;;;;;4.13;3.50;;;22.30;99.90;;;;;;5034657;28;20026;-72
2023/07/24 10:07:40;;;;;;;3.97;3.28;;;22.20;99.90;;;;;;5027462;28;20041;-74
2023/07/24 10:10:07;;;;;;;5.20;3.42;;;22.10;99.90;;;;;;5034456;28;20025;-73
2023/07/24 10:12:34;;;;;;;10.38;3.47;;;22.10;99.90;;;;;;5034664;28;20037;-70
2023/07/24 10:15:00;;;;;;;3.75;3.03;;;21.90;99.90;;;;;;5034368;28;20017;-73
2023/07/24 10:17:37;;;;;;;4.97;3.70;;;21.80;99.90;;;;;;5033985;28;20034;-69
2023/07/24 10:20:08;;;;;;;5.20;3.33;;;21.80;99.90;;;;;;5015232;28;20030;-73
2023/07/24 10:22:34;;;;;;;4.05;3.25;;;21.60;99.90;;;;;;5033773;28;20382;-69
2023/07/24 10:24:59;;;;;;;4.35;3.67;;;21.60;99.90;;;;;;5034865;28;20089;-73
2023/07/24 10:27:26;;;;;;;6.28;4.60;;;21.60;99.90;;;;;;5033160;28;20022;-72
2023/07/24 10:30:06;;;;;;;5.45;4.78;;;21.60;99.90;;;;;;5030374;28;20022;-70
2023/07/24 10:32:32;;;;;;;7.03;4.63;;;21.60;99.90;;;;;;5034302;28;20064;-70
2023/07/24 10:35:08;;;;;;;5.57;4.30;;;21.50;99.90;;;;;;5032751;28;20037;-70
2023/07/24 10:37:35;;;;;;;5.18;4.68;;;21.50;99.90;;;;;;5032829;28;20184;-71
2023/07/24 10:40:03;;;;;;;6.05;4.97;;;21.50;99.90;;;;;;5033405;28;20018;-68
2023/07/24 10:42:30;;;;;;;6.75;4.35;;;21.40;99.90;;;;;;5034348;28;20063;-69
2023/07/24 10:45:08;;;;;;;6.55;5.10;;;21.40;99.90;;;;;;5034388;28;20017;-67
2023/07/24 10:47:34;;;;;;;8.57;5.20;;;21.40;99.90;;;;;;5033781;28;20052;-69
2023/07/24 10:50:02;;;;;;;7.13;5.55;;;21.40;99.90;;;;;;5033808;28;20053;-68
2023/07/24 10:52:32;;;;;;;5.97;5.45;;;21.50;99.90;;;;;;5033949;28;20026;-70
2023/07/24 10:55:02;;;;;;;6.65;5.70;;;21.50;99.90;;;;;;5034105;28;20048;-68
2023/07/24 10:57:31;;;;;;;11.15;6.15;;;21.20;99.90;;;;;;5028196;28;20028;-75
2023/07/24 10:59:57;;;;;;;7.32;5.60;;;21.30;99.90;;;;;;5032083;28;20025;-70
2023/07/24 11:02:23;;;;;;;5.53;5.03;;;21.40;99.90;;;;;;5033675;28;20018;-68
2023/07/24 11:04:49;;;;;;;8.38;5.70;;;21.70;99.90;;;;;;5032943;28;20029;-70
2023/07/24 11:07:15;;;;;;;6.30;5.60;;;21.70;99.90;;;;;;5030924;28;20083;-75
2023/07/24 11:09:41;;;;;;;7.28;5.18;;;21.70;99.90;;;;;;5031919;28;20037;-84
2023/07/24 11:12:16;;;;;;;4.93;4.43;;;22.00;99.90;;;;;;5016182;28;20017;-83
2023/07/24 11:14:55;;;;;;;7.75;4.88;;;22.10;99.90;;;;;;5034721;28;20491;-67
2023/07/24 11:17:22;;;;;;;6.20;5.10;;;22.10;99.90;;;;;;5032019;28;20052;-72
2023/07/24 11:19:48;;;;;;;4.68;4.28;;;22.20;99.90;;;;;;5014758;28;20049;-70
2023/07/24 11:22:14;;;;;;;5.80;4.40;;;22.50;99.90;;;;;;5026170;28;20060;-72
2023/07/24 11:24:45;;;;;;;4.40;4.00;;;22.90;99.90;;;;;;5033033;28;20512;-71
2023/07/24 11:27:15;;;;;;;7.55;4.28;;;23.10;99.90;;;;;;5033340;28;20104;-68
2023/07/24 11:29:50;;;;;;;4.80;4.30;;;22.90;99.90;;;;;;5032830;28;20025;-68
2023/07/24 11:32:20;;;;;;;4.30;4.00;;;23.00;99.90;;;;;;5014623;28;20490;-78
2023/07/24 11:34:48;;;;;;;4.97;4.03;;;23.00;99.90;;;;;;5014993;28;20076;-73
2023/07/24 11:37:14;;;;;;;4.05;3.75;;;22.90;99.90;;;;;;5032379;28;20044;-73
2023/07/24 11:39:40;;;;;;;4.70;4.30;;;22.80;99.90;;;;;;5033271;28;20034;-70
2023/07/24 11:42:06;;;;;;;5.03;4.53;;;22.80;99.90;;;;;;5032334;28;20079;-73
2023/07/24 11:44:32;;;;;;;5.13;4.72;;;22.80;99.90;;;;;;5032582;28;20021;-70
2023/07/24 11:47:05;;;;;;;4.97;4.55;;;22.90;99.90;;;;;;5033016;28;20040;-73
2023/07/24 11:49:32;;;;;;;5.40;4.90;;;22.90;99.90;;;;;;5031577;28;20022;-79
2023/07/24 11:52:05;;;;;;;6.60;5.80;;;22.90;99.90;;;;;;5029552;28;20025;-67
2023/07/24 11:54:35;;;;;;;5.90;4.55;;;22.90;99.90;;;;;;5032645;28;20140;-79
2023/07/24 11:57:00;;;;;;;5.28;4.88;;;22.90;99.90;;;;;;5031779;28;20109;-74
2023/07/24 11:59:27;;;;;;;4.32;4.03;;;22.90;99.90;;;;;;5028015;28;20104;-74
2023/07/24 12:01:53;;;;;;;5.00;4.55;;;23.00;99.90;;;;;;5032490;28;20029;-70
2023/07/24 12:04:20;;;;;;;5.55;4.63;;;23.20;99.90;;;;;;5031363;28;20041;-78
2023/07/24 12:06:46;;;;;;;4.30;3.90;;;23.30;99.90;;;;;;5031945;28;20030;-79
2023/07/24 12:09:12;;;;;;;5.07;4.10;;;23.40;99.90;;;;;;5032583;28;20036;-78
2023/07/24 12:11:44;;;;;;;5.53;4.05;;;23.30;99.90;;;;;;5031761;28;20029;-78
2023/07/24 12:14:10;;;;;;;4.22;3.92;;;23.20;99.90;;;;;;5031184;28;20029;-76
2023/07/24 12:16:36;;;;;;;4.18;3.88;;;23.30;99.90;;;;;;5031855;28;20021;-69
2023/07/24 12:19:02;;;;;;;4.72;4.18;;;23.10;99.90;;;;;;5032379;28;20088;-68
2023/07/24 12:21:28;;;;;;;4.43;4.03;;;23.10;99.90;;;;;;5014334;28;20478;-67
2023/07/24 12:23:54;;;;;;;4.45;4.03;;;23.10;99.90;;;;;;5031755;28;20486;-71
2023/07/24 12:26:20;;;;;;;6.50;3.80;;;23.10;99.90;;;;;;5032148;28;20017;-68
2023/07/24 12:28:45;;;;;;;3.75;3.38;;;23.10;99.90;;;;;;5013291;28;20109;-74
2023/07/24 12:31:11;;;;;;;4.60;3.80;;;23.20;99.90;;;;;;5030797;28;20441;-68
2023/07/24 12:33:37;;;;;;;5.60;4.00;;;23.00;99.90;;;;;;5014317;28;20455;-82
2023/07/24 12:36:03;;;;;;;4.30;4.00;;;23.10;99.90;;;;;;5032660;28;20104;-83
2023/07/24 12:38:29;;;;;;;4.90;3.40;;;22.90;99.90;;;;;;5031884;28;20043;-67
2023/07/24 12:40:55;;;;;;;4.20;3.80;;;22.90;99.90;;;;;;5031221;28;20022;-79